createdAt,value
2022-11-04T00:01:25.991Z,0.50
2022-11-04T00:03:52.714Z,0.45
2022-11-04T00:06:19.160Z,0.50
2022-11-04T00:08:55.998Z,0.50
2022-11-04T00:11:40.825Z,0.93
2022-11-04T00:14:08.246Z,0.50
2022-11-04T00:16:53.181Z,0.20
2022-11-04T00:19:19.681Z,0.50
2022-11-04T00:22:04.699Z,0.20
2022-11-04T00:24:43.304Z,0.30
2022-11-04T00:27:28.901Z,0.30
2022-11-04T00:29:55.271Z,0.20
2022-11-04T00:32:40.389Z,0.40
2022-11-04T00:35:07.419Z,0.40
2022-11-04T00:37:36.375Z,0.30
2022-11-04T00:40:02.804Z,0.40
2022-11-04T00:42:29.143Z,0.30
2022-11-04T00:44:57.078Z,0.50
2022-11-04T00:47:23.621Z,1.45
2022-11-04T00:49:50.288Z,0.50
2022-11-04T00:52:16.674Z,0.40
2022-11-04T00:54:42.982Z,0.30
2022-11-04T00:57:10.090Z,0.57
2022-11-04T00:59:36.572Z,0.32
2022-11-04T01:02:03.259Z,0.28
2022-11-04T01:04:30.001Z,0.52
2022-11-04T01:06:56.487Z,0.90
2022-11-04T01:09:23.165Z,1.40
2022-11-04T01:11:52.066Z,0.77
2022-11-04T01:14:18.977Z,0.43
2022-11-04T01:16:45.372Z,0.60
2022-11-04T01:19:12.422Z,0.65
2022-11-04T01:21:38.715Z,0.50
2022-11-04T01:24:05.293Z,0.70
2022-11-04T01:26:31.861Z,0.57
2022-11-04T01:28:58.902Z,0.32
2022-11-04T01:31:26.741Z,0.50
2022-11-04T01:33:53.436Z,0.47
2022-11-04T01:36:20.104Z,0.30
2022-11-04T01:38:46.851Z,0.30
2022-11-04T01:41:20.563Z,0.40
2022-11-04T01:43:51.425Z,0.30
2022-11-04T01:46:20.649Z,0.15
2022-11-04T01:48:47.200Z,0.50
2022-11-04T01:51:14.762Z,0.70
2022-11-04T01:53:43.415Z,0.10
2022-11-04T01:56:14.412Z,0.30
2022-11-04T01:58:46.390Z,0.20
2022-11-04T02:01:13.099Z,0.90
2022-11-04T02:03:48.948Z,0.10
2022-11-04T02:11:08.085Z,1.10
2022-11-04T02:13:35.694Z,0.95
2022-11-04T02:16:04.754Z,0.60
2022-11-04T02:18:39.821Z,0.68
2022-11-04T02:21:06.120Z,0.57
2022-11-04T02:23:45.518Z,0.73
2022-11-04T02:26:34.857Z,1.00
2022-11-04T02:29:04.237Z,1.25
2022-11-04T02:31:49.135Z,0.75
2022-11-04T02:34:35.712Z,0.80
2022-11-04T02:37:10.840Z,1.15
2022-11-04T02:39:51.510Z,1.10
2022-11-04T02:42:29.736Z,1.20
2022-11-04T02:45:01.127Z,1.75
2022-11-04T02:47:30.521Z,1.65
2022-11-04T02:50:00.220Z,1.00
2022-11-04T02:52:50.212Z,1.90
2022-11-04T02:55:19.936Z,2.45
2022-11-04T02:57:47.905Z,1.70
2022-11-04T03:00:14.808Z,1.65
2022-11-04T03:02:43.162Z,1.95
2022-11-04T03:05:12.359Z,2.13
2022-11-04T03:07:40.440Z,1.55
2022-11-04T03:10:09.822Z,2.50
2022-11-04T03:12:40.013Z,2.28
2022-11-04T03:15:09.211Z,3.10
2022-11-04T03:17:40.762Z,3.63
2022-11-04T03:20:09.260Z,3.50
2022-11-04T03:22:36.879Z,2.42
2022-11-04T03:25:05.119Z,2.30
2022-11-04T03:27:35.054Z,3.25
2022-11-04T03:30:01.419Z,3.00
2022-11-04T03:32:40.184Z,3.17
2022-11-04T03:35:06.981Z,4.50
2022-11-04T03:37:33.533Z,4.03
2022-11-04T03:40:00.082Z,4.30
2022-11-04T03:42:26.999Z,3.03
2022-11-04T03:44:54.910Z,4.05
2022-11-04T03:47:23.142Z,3.42
2022-11-04T03:49:50.611Z,3.17
2022-11-04T03:52:17.784Z,3.05
2022-11-04T03:54:44.667Z,3.72
2022-11-04T03:57:29.431Z,3.45
2022-11-04T03:59:58.498Z,3.45
2022-11-04T04:02:35.984Z,2.70
2022-11-04T04:05:06.792Z,3.65
2022-11-04T04:07:42.013Z,3.17
2022-11-04T04:10:31.703Z,2.38
2022-11-04T04:13:00.372Z,3.53
2022-11-04T04:15:29.601Z,1.80
2022-11-04T04:17:59.047Z,2.80
2022-11-04T04:20:27.022Z,3.17
2022-11-04T04:22:55.538Z,3.53
2022-11-04T04:25:42.553Z,4.10
2022-11-04T04:28:10.850Z,3.40
2022-11-04T04:30:37.976Z,3.53
2022-11-04T04:33:15.226Z,3.30
2022-11-04T04:35:46.892Z,4.28
2022-11-04T04:38:42.543Z,2.78
2022-11-04T04:41:27.675Z,2.95
2022-11-04T04:44:12.555Z,3.00
2022-11-04T04:46:40.140Z,2.13
2022-11-04T04:49:07.166Z,2.08
2022-11-04T04:51:34.696Z,1.80
2022-11-04T04:54:01.016Z,1.83
2022-11-04T04:56:27.341Z,1.85
2022-11-04T04:58:53.765Z,2.05
2022-11-04T05:01:20.174Z,2.20
2022-11-04T05:03:46.761Z,2.03
2022-11-04T05:06:13.118Z,2.25
2022-11-04T05:08:39.486Z,2.05
2022-11-04T05:11:05.908Z,1.17
2022-11-04T05:13:32.314Z,2.30
2022-11-04T05:16:05.886Z,1.95
2022-11-04T05:18:32.179Z,2.40
2022-11-04T05:20:58.598Z,2.97
2022-11-04T05:23:24.950Z,1.77
2022-11-04T05:25:51.246Z,3.50
2022-11-04T05:28:17.597Z,3.60
2022-11-04T05:30:44.351Z,2.45
2022-11-04T05:33:11.028Z,1.83
2022-11-04T05:35:37.660Z,3.50
2022-11-04T05:38:04.031Z,2.63
2022-11-04T05:40:30.351Z,3.08
2022-11-04T05:42:57.655Z,2.97
2022-11-04T05:45:24.018Z,3.10
2022-11-04T05:47:56.747Z,2.83
2022-11-04T05:50:23.055Z,3.40
2022-11-04T05:52:49.413Z,2.60
2022-11-04T05:55:15.831Z,2.92
2022-11-04T05:57:42.165Z,3.72
2022-11-04T06:00:13.197Z,2.75
2022-11-04T06:02:39.620Z,3.08
2022-11-04T06:05:06.420Z,3.40
2022-11-04T06:07:32.744Z,3.38
2022-11-04T06:10:00.285Z,2.55
2022-11-04T06:12:26.795Z,2.38
2022-11-04T06:14:54.174Z,2.00
2022-11-04T06:17:21.472Z,2.47
2022-11-04T06:19:47.882Z,2.25
2022-11-04T06:22:15.421Z,3.22
2022-11-04T06:24:42.038Z,3.40
2022-11-04T06:27:08.604Z,3.80
2022-11-04T06:29:36.631Z,3.60
2022-11-04T06:32:03.037Z,3.63
2022-11-04T06:34:29.382Z,2.58
2022-11-04T06:36:55.720Z,3.03
2022-11-04T06:39:22.045Z,1.88
2022-11-04T06:41:51.603Z,1.75
2022-11-04T06:44:18.449Z,2.75
2022-11-04T06:46:44.928Z,2.15
2022-11-04T06:49:15.549Z,2.00
2022-11-04T06:51:41.909Z,1.80
2022-11-04T06:54:08.290Z,1.70
2022-11-04T06:56:34.605Z,1.95
2022-11-04T06:59:01.194Z,1.75
2022-11-04T07:01:28.791Z,2.00
2022-11-04T07:03:56.299Z,2.10
2022-11-04T07:06:23.223Z,2.17
2022-11-04T07:08:50.341Z,1.45
2022-11-04T07:11:17.730Z,1.48
2022-11-04T07:13:44.163Z,1.25
2022-11-04T07:16:10.543Z,1.52
2022-11-04T07:18:36.941Z,1.77
2022-11-04T07:21:08.814Z,1.52
2022-11-04T07:23:36.709Z,1.48
2022-11-04T07:26:04.240Z,1.38
2022-11-04T07:28:31.041Z,1.52
2022-11-04T07:30:58.036Z,1.25
2022-11-04T07:33:25.396Z,1.50
2022-11-04T07:35:56.987Z,1.50
2022-11-04T07:38:24.705Z,1.08
2022-11-04T07:40:51.104Z,1.77
2022-11-04T07:43:17.536Z,1.40
2022-11-04T07:45:44.051Z,1.13
2022-11-04T07:48:10.864Z,1.60
2022-11-04T07:50:40.789Z,1.83
2022-11-04T07:53:07.654Z,2.60
2022-11-04T07:55:41.816Z,1.77
2022-11-04T07:58:10.047Z,2.00
2022-11-04T08:00:36.400Z,1.65
2022-11-04T08:03:02.957Z,1.60
2022-11-04T08:05:29.371Z,1.75
2022-11-04T08:07:57.802Z,1.15
2022-11-04T08:10:24.140Z,2.15
2022-11-04T08:12:51.277Z,1.40
2022-11-04T08:15:17.700Z,1.95
2022-11-04T08:17:44.077Z,1.73
2022-11-04T08:20:10.649Z,1.88
2022-11-04T08:22:36.954Z,2.42
2022-11-04T08:25:03.475Z,1.92
2022-11-04T08:27:29.817Z,1.77
2022-11-04T08:29:56.195Z,1.73
2022-11-04T08:32:22.687Z,1.42
2022-11-04T08:34:49.187Z,1.60
2022-11-04T08:37:17.389Z,1.45
2022-11-04T08:39:43.892Z,1.52
2022-11-04T08:42:10.608Z,1.20
2022-11-04T08:44:39.251Z,1.80
2022-11-04T08:47:05.688Z,2.10
2022-11-04T08:49:32.023Z,0.85
2022-11-04T08:52:00.452Z,1.65
2022-11-04T08:54:27.113Z,1.13
2022-11-04T08:56:53.478Z,1.35
2022-11-04T08:59:19.821Z,2.42
2022-11-04T09:01:46.318Z,0.90
2022-11-04T09:04:12.898Z,1.50
2022-11-04T09:06:41.792Z,1.25
2022-11-04T09:09:09.198Z,1.48
2022-11-04T09:11:38.181Z,1.38
2022-11-04T09:14:05.624Z,1.20
2022-11-04T09:16:33.440Z,1.60
2022-11-04T09:19:00.130Z,1.80
2022-11-04T09:21:27.102Z,1.80
2022-11-04T09:23:53.855Z,0.90
2022-11-04T09:26:20.964Z,1.30
2022-11-04T09:28:47.343Z,0.90
2022-11-04T09:31:18.383Z,1.08
2022-11-04T09:33:45.070Z,1.48
2022-11-04T09:36:11.939Z,0.88
2022-11-04T09:38:39.203Z,1.10
2022-11-04T09:41:20.543Z,1.00
2022-11-04T09:43:53.955Z,0.60
2022-11-04T09:46:20.595Z,1.00
2022-11-04T09:48:51.827Z,1.02
2022-11-04T09:51:32.950Z,1.00
2022-11-04T09:54:26.596Z,0.98
2022-11-04T09:56:53.867Z,0.73
2022-11-04T09:59:21.627Z,0.50
2022-11-04T10:01:50.850Z,0.70
2022-11-04T10:04:32.692Z,0.77
2022-11-04T10:06:59.035Z,1.27
2022-11-04T10:09:25.351Z,0.70
2022-11-04T10:12:10.423Z,1.05
2022-11-04T10:14:42.536Z,1.40
2022-11-04T10:17:18.097Z,1.05
2022-11-04T10:19:53.557Z,0.50
2022-11-04T10:22:33.678Z,0.80
2022-11-04T10:25:12.683Z,1.55
2022-11-04T10:27:41.413Z,0.98
2022-11-04T10:30:15.805Z,1.25
2022-11-04T10:32:51.579Z,0.65
2022-11-04T10:37:45.061Z,0.60
2022-11-04T10:40:21.709Z,0.73
2022-11-04T10:42:48.578Z,1.20
2022-11-04T10:45:15.397Z,1.20
2022-11-04T10:47:51.918Z,1.15
2022-11-04T10:50:30.985Z,1.77
2022-11-04T10:53:18.184Z,0.80
2022-11-04T10:55:47.692Z,1.02
2022-11-04T10:58:19.292Z,1.00
2022-11-04T11:00:45.731Z,1.13
2022-11-04T11:03:24.948Z,0.43
2022-11-04T11:05:52.024Z,0.50
2022-11-04T11:08:32.518Z,0.50
2022-11-04T11:10:59.046Z,0.45
2022-11-04T11:13:27.493Z,0.50
2022-11-04T11:16:08.348Z,0.40
2022-11-04T11:18:37.116Z,0.22
2022-11-04T11:21:05.333Z,0.28
2022-11-04T11:23:47.397Z,0.32
2022-11-04T11:26:18.567Z,0.50
2022-11-04T11:28:51.257Z,1.08
2022-11-04T11:31:24.556Z,0.50
2022-11-04T11:33:52.935Z,0.40
2022-11-04T11:36:23.030Z,0.40
2022-11-04T11:38:52.433Z,0.30
2022-11-04T11:41:25.186Z,0.40
2022-11-04T11:43:53.260Z,0.40
2022-11-04T11:46:27.960Z,0.38
2022-11-04T11:48:57.750Z,0.30
2022-11-04T11:51:32.329Z,0.47
2022-11-04T11:54:22.841Z,0.33
2022-11-04T11:57:13.357Z,0.38
2022-11-04T12:02:27.311Z,0.22
2022-11-04T12:10:50.556Z,0.30
2022-11-04T12:13:44.219Z,0.25
2022-11-04T12:16:29.608Z,0.40
2022-11-04T12:18:58.737Z,0.50
2022-11-04T12:21:33.274Z,0.30
2022-11-04T12:24:02.147Z,0.30
2022-11-04T12:26:40.813Z,0.30
2022-11-04T12:29:09.958Z,0.35
2022-11-04T12:31:36.257Z,0.30
2022-11-04T12:34:02.679Z,0.20
2022-11-04T12:36:29.040Z,0.28
2022-11-04T12:39:21.367Z,0.20
2022-11-04T12:44:58.873Z,0.80
2022-11-04T12:47:34.434Z,0.68
2022-11-04T12:50:00.846Z,0.50
2022-11-04T12:52:45.783Z,0.40
2022-11-04T12:55:27.216Z,0.28
2022-11-04T12:58:12.241Z,0.47
2022-11-04T13:00:41.254Z,0.30
2022-11-04T13:03:15.127Z,0.45
2022-11-04T13:05:48.919Z,0.52
2022-11-04T13:08:33.432Z,0.50
2022-11-04T13:11:22.544Z,0.38
2022-11-04T13:14:07.769Z,0.50
2022-11-04T13:16:36.781Z,0.50
2022-11-04T13:19:04.080Z,0.60
2022-11-04T13:21:34.323Z,0.20
2022-11-04T13:24:05.402Z,0.40
2022-11-04T13:26:32.192Z,0.40
2022-11-04T13:29:08.947Z,0.40
2022-11-04T13:31:46.132Z,0.40
2022-11-04T13:34:24.553Z,0.32
2022-11-04T13:37:05.896Z,0.40
2022-11-04T13:39:35.028Z,0.40
2022-11-04T13:42:07.531Z,0.40
2022-11-04T13:44:43.218Z,0.25
2022-11-04T13:47:35.775Z,0.50
2022-11-04T13:50:02.233Z,0.60
2022-11-04T13:52:31.270Z,0.20
2022-11-04T13:54:58.789Z,0.50
2022-11-04T13:57:29.410Z,0.50
2022-11-04T14:00:10.856Z,0.50
2022-11-04T14:02:37.681Z,0.57
2022-11-04T14:05:22.595Z,0.70
2022-11-04T14:07:57.989Z,0.32
2022-11-04T14:10:44.196Z,0.40
2022-11-04T14:16:06.402Z,0.43
2022-11-04T14:18:32.727Z,0.80
2022-11-04T14:21:04.502Z,0.60
2022-11-04T14:23:31.243Z,0.73
2022-11-04T14:26:02.663Z,0.50
2022-11-04T14:28:30.153Z,0.70
2022-11-04T14:30:58.822Z,0.80
2022-11-04T14:33:37.104Z,0.85
2022-11-04T14:36:18.511Z,0.77
2022-11-04T14:38:44.969Z,0.80
2022-11-04T14:41:14.183Z,0.85
2022-11-04T14:43:45.140Z,0.88
2022-11-04T14:46:12.919Z,1.73
2022-11-04T14:48:42.852Z,0.50
2022-11-04T14:51:20.063Z,0.95
2022-11-04T14:53:46.414Z,0.65
2022-11-04T14:56:23.211Z,0.95
2022-11-04T14:59:00.835Z,1.08
2022-11-04T15:01:34.133Z,1.23
2022-11-04T15:04:12.293Z,1.35
2022-11-04T15:06:55.672Z,0.52
2022-11-04T15:09:26.658Z,1.00
2022-11-04T15:12:20.413Z,1.17
2022-11-04T15:14:46.789Z,1.00
2022-11-04T15:17:17.464Z,0.75
2022-11-04T15:19:47.824Z,1.08
2022-11-04T15:22:14.226Z,1.52
2022-11-04T15:24:42.323Z,0.75
2022-11-04T15:27:13.386Z,0.80
2022-11-04T15:29:39.689Z,0.60
2022-11-04T15:32:06.099Z,0.93
2022-11-04T15:34:33.298Z,0.50
2022-11-04T15:37:04.540Z,1.10
2022-11-04T15:39:32.163Z,0.95
2022-11-04T15:42:18.450Z,1.42
2022-11-04T15:44:45.982Z,0.85
2022-11-04T15:47:18.106Z,0.60
2022-11-04T15:49:45.226Z,0.45
2022-11-04T15:52:12.945Z,0.80
2022-11-04T15:54:40.456Z,0.70
2022-11-04T15:57:15.898Z,0.70
2022-11-04T15:59:49.370Z,0.70
2022-11-04T16:02:22.039Z,0.47
2022-11-04T16:05:01.436Z,0.50
2022-11-04T16:07:30.664Z,1.05
2022-11-04T16:09:57.262Z,0.77
2022-11-04T16:12:23.636Z,0.90
2022-11-04T16:14:51.181Z,0.60
2022-11-04T16:17:18.050Z,0.90
2022-11-04T16:19:46.509Z,0.70
2022-11-04T16:22:17.269Z,1.05
2022-11-04T16:24:47.076Z,0.80
2022-11-04T16:27:15.842Z,1.00
2022-11-04T16:29:47.663Z,0.80
2022-11-04T16:32:14.278Z,0.50
2022-11-04T16:34:40.655Z,0.40
2022-11-04T16:37:06.988Z,1.10
2022-11-04T16:39:34.456Z,0.85
2022-11-04T16:42:00.879Z,1.30
2022-11-04T16:44:27.490Z,1.35
2022-11-04T16:46:54.086Z,0.90
2022-11-04T16:49:21.820Z,1.23
2022-11-04T16:51:49.333Z,0.65
2022-11-04T16:54:15.978Z,0.50
2022-11-04T16:56:42.304Z,1.30
2022-11-04T16:59:11.726Z,1.48
2022-11-04T17:01:40.055Z,1.70
2022-11-04T17:04:09.613Z,0.70
2022-11-04T17:06:36.389Z,1.48
2022-11-04T17:09:03.071Z,1.85
2022-11-04T17:11:32.232Z,1.13
2022-11-04T17:13:58.682Z,1.27
2022-11-04T17:16:25.028Z,0.60
2022-11-04T17:18:51.455Z,1.33
2022-11-04T17:21:20.304Z,1.35
2022-11-04T17:23:46.807Z,1.00
2022-11-04T17:26:13.443Z,1.50
2022-11-04T17:28:39.849Z,1.60
2022-11-04T17:31:06.402Z,1.45
2022-11-04T17:33:32.767Z,1.20
2022-11-04T17:36:04.775Z,2.00
2022-11-04T17:38:35.813Z,0.88
2022-11-04T17:41:21.014Z,0.47
2022-11-04T17:44:02.597Z,1.38
2022-11-04T17:46:35.335Z,0.70
2022-11-04T17:49:02.792Z,0.88
2022-11-04T17:51:29.158Z,1.08
2022-11-04T17:53:55.546Z,1.58
2022-11-04T17:56:22.496Z,2.85
2022-11-04T17:58:49.558Z,3.20
2022-11-04T18:01:17.630Z,3.40
2022-11-04T18:03:44.053Z,1.17
2022-11-04T18:06:10.806Z,1.85
2022-11-04T18:08:37.521Z,2.05
2022-11-04T18:11:05.755Z,2.17
2022-11-04T18:13:32.249Z,1.35
2022-11-04T18:15:58.663Z,1.63
2022-11-04T18:18:25.046Z,1.83
2022-11-04T18:20:51.466Z,2.75
2022-11-04T18:23:18.121Z,1.27
2022-11-04T18:25:48.141Z,1.35
2022-11-04T18:28:16.956Z,1.42
2022-11-04T18:30:43.251Z,1.90
2022-11-04T18:33:09.765Z,2.58
2022-11-04T18:35:36.413Z,2.08
2022-11-04T18:38:02.760Z,1.95
2022-11-04T18:40:29.322Z,2.55
2022-11-04T18:42:56.335Z,2.30
2022-11-04T18:45:22.944Z,1.60
2022-11-04T18:47:49.363Z,1.73
2022-11-04T18:50:15.843Z,1.45
2022-11-04T18:52:42.263Z,2.00
2022-11-04T18:55:08.997Z,1.88
2022-11-04T18:57:35.570Z,2.22
2022-11-04T19:00:02.256Z,1.95
2022-11-04T19:02:28.907Z,1.55
2022-11-04T19:04:55.323Z,2.08
2022-11-04T19:07:21.818Z,1.92
2022-11-04T19:09:48.240Z,1.88
2022-11-04T19:12:33.729Z,2.00
2022-11-04T19:15:00.071Z,1.80
2022-11-04T19:17:26.399Z,2.05
2022-11-04T19:19:52.776Z,1.52
2022-11-04T19:22:19.094Z,1.65
2022-11-04T19:24:46.210Z,1.23
2022-11-04T19:27:12.728Z,2.17
2022-11-04T19:29:39.501Z,1.73
2022-11-04T19:32:12.784Z,1.20
2022-11-04T19:34:40.469Z,1.63
2022-11-04T19:37:06.906Z,1.40
2022-11-04T19:39:34.659Z,1.67
2022-11-04T19:42:31.925Z,1.40
2022-11-04T19:44:58.707Z,1.98
2022-11-04T19:47:25.486Z,1.73
2022-11-04T19:49:52.010Z,1.98
2022-11-04T19:52:18.708Z,2.25
2022-11-04T19:54:45.102Z,1.50
2022-11-04T19:57:11.597Z,1.95
2022-11-04T19:59:38.047Z,6.97
2022-11-04T20:02:04.728Z,1.85
2022-11-04T20:04:31.146Z,1.40
2022-11-04T20:06:57.487Z,1.10
2022-11-04T20:09:23.900Z,0.80
2022-11-04T20:12:08.833Z,1.30
2022-11-04T20:14:35.197Z,1.00
2022-11-04T20:17:04.864Z,0.98
2022-11-04T20:19:31.229Z,0.80
2022-11-04T20:21:57.704Z,1.10
2022-11-04T20:24:25.652Z,1.05
2022-11-04T20:26:52.267Z,1.00
2022-11-04T20:29:18.962Z,1.08
2022-11-04T20:31:45.893Z,1.00
2022-11-04T20:34:13.719Z,1.25
2022-11-04T20:36:40.443Z,1.10
2022-11-04T20:39:14.320Z,1.00
2022-11-04T20:41:43.885Z,1.00
2022-11-04T20:44:12.233Z,0.55
2022-11-04T20:46:38.678Z,1.10
2022-11-04T20:49:05.116Z,0.77
2022-11-04T20:51:34.713Z,1.15
2022-11-04T20:54:02.760Z,1.10
2022-11-04T20:56:33.680Z,1.63
2022-11-04T20:59:01.897Z,1.48
2022-11-04T21:01:29.724Z,1.90
2022-11-04T21:03:58.446Z,1.48
2022-11-04T21:06:25.261Z,1.92
2022-11-04T21:08:51.743Z,1.65
2022-11-04T21:11:18.134Z,1.77
2022-11-04T21:13:44.900Z,1.20
2022-11-04T21:16:13.360Z,0.90
2022-11-04T21:18:39.734Z,2.22
2022-11-04T21:21:06.841Z,0.98
2022-11-04T21:23:33.437Z,0.65
2022-11-04T21:26:04.976Z,0.65
2022-11-04T21:28:31.369Z,0.60
2022-11-04T21:31:01.640Z,0.65
2022-11-04T21:33:27.966Z,0.70
2022-11-04T21:35:54.395Z,0.73
2022-11-04T21:38:20.894Z,0.88
2022-11-04T21:40:47.345Z,1.00
2022-11-04T21:43:14.292Z,1.10
2022-11-04T21:45:40.699Z,1.00
2022-11-04T21:48:07.274Z,0.85
2022-11-04T21:50:33.782Z,0.75
2022-11-04T21:53:00.201Z,1.17
2022-11-04T21:55:26.875Z,1.38
2022-11-04T21:57:53.497Z,0.63
2022-11-04T22:00:19.942Z,0.70
2022-11-04T22:02:53.597Z,1.25
2022-11-04T22:05:20.999Z,0.70
2022-11-04T22:08:06.181Z,0.75
2022-11-04T22:10:32.671Z,0.73
2022-11-04T22:12:59.158Z,0.45
2022-11-04T22:15:45.732Z,0.63
2022-11-04T22:18:12.370Z,0.90
2022-11-04T22:20:38.752Z,0.65
2022-11-04T22:23:05.168Z,0.85
2022-11-04T22:25:31.609Z,0.50
2022-11-04T22:27:58.005Z,0.77
2022-11-04T22:30:24.960Z,0.70
2022-11-04T22:32:51.915Z,1.20
2022-11-04T22:35:18.396Z,0.70
2022-11-04T22:37:44.992Z,1.20
2022-11-04T22:40:11.806Z,0.75
2022-11-04T22:42:38.261Z,0.60
2022-11-04T22:45:05.329Z,0.93
2022-11-04T22:47:31.857Z,0.50
2022-11-04T22:49:58.271Z,1.20
2022-11-04T22:52:24.638Z,1.13
2022-11-04T22:54:51.016Z,0.70
2022-11-04T22:57:17.387Z,0.52
2022-11-04T22:59:43.852Z,0.50
2022-11-04T23:02:10.294Z,0.50
2022-11-04T23:04:37.820Z,0.90
2022-11-04T23:07:04.716Z,0.50
2022-11-04T23:09:31.875Z,0.70
2022-11-04T23:12:16.860Z,0.73
2022-11-04T23:14:43.360Z,0.60
2022-11-04T23:17:36.179Z,0.70
2022-11-04T23:20:04.442Z,0.63
2022-11-04T23:22:49.460Z,0.80
2022-11-04T23:25:15.836Z,0.65
2022-11-04T23:28:08.881Z,0.77
2022-11-04T23:30:36.855Z,0.50
2022-11-04T23:33:04.627Z,0.43
2022-11-04T23:35:55.784Z,0.70
2022-11-04T23:38:22.487Z,0.85
2022-11-04T23:41:08.979Z,1.02
2022-11-04T23:43:35.485Z,0.80
2022-11-04T23:46:20.690Z,0.85
2022-11-04T23:49:05.754Z,1.08
2022-11-04T23:51:50.745Z,1.00
2022-11-04T23:54:36.047Z,0.95
2022-11-04T23:57:21.505Z,0.90
